Time;durP1;ratioP1;P1;durP2;ratioP2;P2;SDS_P1;SDS_P2;PMS_P1;PMS_P2;Temp;Humidity;BMP_temperature;BMP_pressure;BME280_temperature;BME280_humidity;BME280_pressure;Samples;Min_cycle;Max_cycle;Signal;HPM_P1;HPM_P2
2022/05/05 05:45:59;;;;;;;;;17.75;13.25;;;;;13.98;100.00;101099.13;6277335;22;46901;-96
2022/05/05 05:48:27;;;;;;;;;18.00;16.67;;;;;14.05;100.00;101107.34;6329746;22;45153;-96
2022/05/05 05:50:53;;;;;;;;;20.67;15.33;;;;;14.10;100.00;101090.75;6331914;22;44778;-96
2022/05/05 05:53:55;;;;;;;;;15.33;14.00;;;;;14.29;100.00;101148.69;6325848;22;44840;-96
2022/05/05 05:56:22;;;;;;;;;17.00;12.25;;;;;14.24;100.00;101120.31;6360364;22;45510;-96
2022/05/05 05:58:48;;;;;;;;;14.25;13.50;;;;;14.36;100.00;101140.97;6328797;22;45727;-96
2022/05/05 06:09:19;;;;;;;;;16.50;12.50;;;;;14.56;100.00;101132.88;6313159;22;45018;-96
2022/05/05 06:11:52;;;;;;;;;17.75;15.75;;;;;14.60;100.00;101143.59;6246420;22;44715;-96
2022/05/05 06:14:20;;;;;;;;;15.25;13.50;;;;;14.76;100.00;101165.28;6276329;22;44789;-96
2022/05/05 06:27:17;;;;;;;;;20.75;14.75;;;;;14.89;100.00;101182.50;6132689;23;46833;-85
2022/05/05 06:29:42;;;;;;;;;17.00;13.00;;;;;15.00;100.00;101187.25;6136331;23;45540;-85
2022/05/05 06:32:08;;;;;;;;;14.33;12.00;;;;;15.04;100.00;101187.41;6143926;22;47409;-83
2022/05/05 06:34:33;;;;;;;;;16.00;12.33;;;;;15.13;100.00;101181.50;6142823;23;45271;-85
2022/05/05 06:36:59;;;;;;;;;18.00;15.67;;;;;15.22;100.00;101193.25;6143131;23;45476;-84
2022/05/05 06:39:24;;;;;;;;;16.00;14.00;;;;;15.29;100.00;101200.53;6144683;22;45357;-84
2022/05/05 06:41:49;;;;;;;;;18.00;14.00;;;;;15.35;100.00;101211.34;6146037;22;45344;-84
2022/05/05 06:44:15;;;;;;;;;17.75;16.25;;;;;15.39;100.00;101209.66;6147464;23;53736;-84
2022/05/05 06:46:40;;;;;;;;;14.33;12.33;;;;;15.43;100.00;101230.09;6153565;22;45344;-84
2022/05/05 06:49:05;;;;;;;;;24.25;18.00;;;;;15.46;100.00;101226.66;6131018;22;45518;-84
2022/05/05 06:51:31;;;;;;;;;18.33;16.67;;;;;15.49;100.00;101235.56;6142275;23;51575;-84
2022/05/05 06:53:56;;;;;;;;;17.50;14.50;;;;;15.48;100.00;101247.03;6139026;22;50434;-84
2022/05/05 06:56:24;;;;;;;;;19.00;17.00;;;;;15.48;100.00;101246.13;6142643;22;45659;-84
2022/05/05 06:58:49;;;;;;;;;10.00;9.00;;;;;15.48;100.00;101246.13;6135342;23;45419;-85
2022/05/05 07:06:42;;;;;;;;;16.75;13.25;;;;;15.63;100.00;101219.25;6141751;23;45819;-85
2022/05/05 07:11:53;;;;;;;;;22.67;14.67;;;;;15.84;100.00;101239.31;6140577;23;45592;-85
2022/05/05 07:14:18;;;;;;;;;21.00;16.00;;;;;15.97;100.00;101246.81;6127287;23;45451;-84
2022/05/05 07:16:44;;;;;;;;;18.25;16.75;;;;;16.08;100.00;101251.56;6139878;23;51568;-84
2022/05/05 07:19:10;;;;;;;;;22.33;18.00;;;;;16.15;100.00;101269.44;6127930;22;45377;-84
2022/05/05 07:21:37;;;;;;;;;15.25;13.75;;;;;16.20;100.00;101266.94;6142274;23;45202;-84
2022/05/05 07:24:03;;;;;;;;;16.33;14.00;;;;;16.28;100.00;101281.31;6139882;23;44824;-84
2022/05/05 07:26:29;;;;;;;;;22.00;18.00;;;;;16.42;100.00;101291.41;6134613;22;45449;-84
2022/05/05 07:28:54;;;;;;;;;18.67;14.33;;;;;16.56;100.00;101288.28;6136484;22;45319;-85
2022/05/05 07:31:19;;;;;;;;;15.67;13.33;;;;;16.73;100.00;101300.25;6141132;23;45283;-84
2022/05/05 07:33:45;;;;;;;;;19.75;16.50;;;;;16.85;100.00;101312.94;6141587;22;45298;-84
2022/05/05 07:36:10;;;;;;;;;14.50;12.00;;;;;16.98;100.00;101330.09;6142255;22;46253;-85
2022/05/05 07:38:36;;;;;;;;;16.67;15.33;;;;;17.09;100.00;101330.41;6133539;23;45531;-85
2022/05/05 07:41:01;;;;;;;;;16.25;15.25;;;;;17.16;100.00;101351.84;6138323;23;45317;-84
2022/05/05 07:43:27;;;;;;;;;14.67;14.67;;;;;17.17;100.00;101356.28;6141826;23;45639;-84
2022/05/05 07:45:52;;;;;;;;;19.00;18.00;;;;;17.19;100.00;101355.47;6143046;22;45694;-84
2022/05/05 07:48:19;;;;;;;;;12.00;10.67;;;;;17.25;100.00;101356.50;6135484;23;45300;-85
2022/05/05 07:50:47;;;;;;;;;19.75;17.50;;;;;17.28;100.00;101367.19;6143970;23;45424;-88
2022/05/05 07:53:12;;;;;;;;;15.67;15.00;;;;;17.49;100.00;101373.94;6140930;22;45848;-87
2022/05/05 07:55:38;;;;;;;;;20.75;17.50;;;;;17.65;100.00;101383.22;6136078;22;47136;-84
2022/05/05 07:58:03;;;;;;;;;21.00;18.00;;;;;17.90;100.00;101386.50;6141437;23;45296;-84
2022/05/05 08:00:28;;;;;;;;;17.00;14.00;;;;;18.17;100.00;101400.41;6140750;23;45408;-84
2022/05/05 08:02:54;;;;;;;;;23.33;16.00;;;;;18.50;100.00;101396.78;6140294;23;45344;-84
2022/05/05 08:05:19;;;;;;;;;21.00;17.67;;;;;18.74;100.00;101405.28;6142539;23;46185;-84
2022/05/05 08:07:47;;;;;;;;;21.33;15.67;;;;;18.84;100.00;101443.59;6142766;22;45455;-84
2022/05/05 08:10:13;;;;;;;;;13.33;11.33;;;;;18.95;100.00;101451.81;6147046;23;45296;-84
2022/05/05 08:12:39;;;;;;;;;18.67;15.33;;;;;18.89;100.00;101468.53;6145033;23;45360;-84
2022/05/05 08:15:06;;;;;;;;;13.00;10.00;;;;;18.86;100.00;101477.34;6127618;23;47209;-85
2022/05/05 08:17:33;;;;;;;;;13.00;10.67;;;;;18.90;100.00;101459.72;6143856;23;45331;-85
2022/05/05 08:19:59;;;;;;;;;17.00;15.33;;;;;19.06;100.00;101478.66;6147574;23;45334;-85
2022/05/05 08:22:24;;;;;;;;;16.67;14.33;;;;;19.30;100.00;101466.78;6133599;22;45359;-84
2022/05/05 08:30:18;;;;;;;;;15.33;14.33;;;;;19.86;100.00;101505.16;6142327;23;45379;-84
2022/05/05 08:32:43;;;;;;;;;15.67;14.67;;;;;20.03;100.00;101495.66;6136534;22;45301;-84
2022/05/05 08:35:09;;;;;;;;;15.00;12.33;;;;;20.29;100.00;101498.81;6129620;22;47335;-84
2022/05/05 08:37:34;;;;;;;;;15.33;12.33;;;;;20.59;100.00;101509.94;6140173;22;45381;-84
2022/05/05 08:40:00;;;;;;;;;14.67;14.33;;;;;20.77;100.00;101525.34;6140927;23;45399;-84
2022/05/05 08:42:25;;;;;;;;;17.00;15.67;;;;;20.76;100.00;101538.66;6132016;23;45598;-84
2022/05/05 08:44:51;;;;;;;;;14.33;12.00;;;;;20.76;100.00;101544.91;6141230;23;48118;-84
2022/05/05 08:47:17;;;;;;;;;14.00;12.67;;;;;20.77;100.00;101546.69;6143263;23;45428;-85
2022/05/05 08:49:43;;;;;;;;;15.00;11.00;;;;;20.72;100.00;101576.84;6143932;22;45254;-85
2022/05/05 08:52:11;;;;;;;;;15.67;11.67;;;;;20.61;100.00;101574.91;6128479;22;45395;-84
2022/05/05 08:54:39;;;;;;;;;13.67;10.00;;;;;20.56;100.00;101570.34;6139811;22;47315;-85
2022/05/05 08:57:05;;;;;;;;;9.67;9.67;;;;;20.54;100.00;101572.97;6140546;23;45906;-84
2022/05/05 08:59:31;;;;;;;;;14.00;10.33;;;;;20.46;100.00;101585.28;6142957;23;45306;-84
2022/05/05 09:01:56;;;;;;;;;14.67;12.33;;;;;20.44;100.00;101585.25;6139126;22;45251;-84
2022/05/05 09:04:21;;;;;;;;;15.00;11.67;;;;;20.41;100.00;101591.44;6125828;23;47749;-84
2022/05/05 09:06:52;;;;;;;;;13.00;10.67;;;;;20.40;100.00;101605.66;6140314;23;45922;-85
2022/05/05 09:09:35;;;;;;;;;12.00;9.33;;;;;20.47;100.00;101614.63;6130531;22;45383;-85
2022/05/05 09:12:14;;;;;;;;;12.00;10.00;;;;;20.65;100.00;101606.06;6140887;23;45369;-84
2022/05/05 09:14:47;;;;;;;;;12.00;11.00;;;;;20.77;100.00;101602.69;6135560;22;47590;-84
2022/05/05 09:17:17;;;;;;;;;8.67;8.67;;;;;20.87;100.00;101625.09;6141788;23;45441;-85
2022/05/05 09:19:54;;;;;;;;;7.00;6.00;;;;;21.04;100.00;101624.50;6136298;22;45287;-84
2022/05/05 09:22:24;;;;;;;;;8.33;7.00;;;;;21.26;100.00;101627.50;6130693;22;45322;-85
2022/05/05 09:24:51;;;;;;;;;7.67;6.67;;;;;21.61;100.00;101646.66;6140001;23;48183;-85
2022/05/05 09:27:51;;;;;;;;;5.00;5.00;;;;;21.87;100.00;101655.06;6140878;22;45440;-85
2022/05/05 09:30:17;;;;;;;;;8.67;7.00;;;;;21.93;100.00;101658.69;6144040;22;45296;-85
2022/05/05 09:32:44;;;;;;;;;10.00;7.00;;;;;21.82;100.00;101663.88;6136659;22;45334;-85
2022/05/05 09:35:12;;;;;;;;;9.00;8.00;;;;;21.59;100.00;101673.38;6143220;22;46227;-85
2022/05/05 09:37:44;;;;;;;;;8.67;7.00;;;;;21.31;100.00;101675.66;6142786;22;45407;-85
2022/05/05 09:40:13;;;;;;;;;9.00;7.33;;;;;21.10;100.00;101683.34;6128586;23;45281;-85
2022/05/05 09:42:43;;;;;;;;;5.33;5.33;;;;;20.94;100.00;101683.91;6141256;23;45345;-85
2022/05/05 09:45:29;;;;;;;;;7.00;5.00;;;;;20.71;100.00;101689.75;6142102;22;46405;-86
2022/05/05 09:48:01;;;;;;;;;4.33;4.33;;;;;20.71;100.00;101679.97;6142321;22;45367;-83
2022/05/05 09:50:29;;;;;;;;;7.00;5.00;;;;;21.16;100.00;101670.94;6142928;22;45365;-86
2022/05/05 09:58:39;;;;;;;;;5.33;5.33;;;;;27.12;100.00;101690.97;6145655;23;45513;-82
2022/05/05 10:01:09;;;;;;;;;5.67;5.33;;;;;29.36;100.00;101743.84;6142105;22;45278;-83
2022/05/05 10:04:03;;;;;;;;;5.67;5.67;;;;;28.96;99.44;101807.53;6142106;23;45282;-83
2022/05/05 10:06:35;;;;;;;;;8.67;6.67;;;;;27.91;95.79;101825.94;6131216;22;48417;-83
2022/05/05 10:09:14;;;;;;;;;8.00;7.00;;;;;27.00;93.78;101834.75;6136939;23;45349;-82
2022/05/05 10:11:41;;;;;;;;;8.00;8.00;;;;;26.09;93.08;101833.34;6141533;23;45532;-82
2022/05/05 10:14:10;;;;;;;;;5.00;5.00;;;;;25.26;92.78;101824.41;6128910;23;45470;-82
2022/05/05 10:16:37;;;;;;;;;7.67;6.00;;;;;24.48;92.68;101822.44;6141627;23;46549;-82
2022/05/05 10:19:04;;;;;;;;;5.00;5.00;;;;;23.80;91.89;101830.06;6141687;23;45811;-84
2022/05/05 10:21:59;;;;;;;;;7.33;7.00;;;;;23.14;92.94;101818.75;6134198;23;45678;-83
2022/05/05 10:24:53;;;;;;;;;5.00;4.00;;;;;22.60;92.98;101800.31;6144673;23;45533;-82
2022/05/05 10:27:19;;;;;;;;;7.33;6.33;;;;;22.29;94.57;101787.47;6180132;22;47265;-84
2022/05/05 10:29:46;;;;;;;;;6.33;6.00;;;;;23.87;99.08;101735.38;6141365;22;45401;-82
2022/05/05 10:32:18;;;;;;;;;6.00;6.00;;;;;26.50;100.00;101746.19;6128527;22;45364;-82
2022/05/05 10:35:07;;;;;;;;;5.67;5.00;;;;;28.73;97.76;101793.47;6140698;22;45495;-82
2022/05/05 10:37:36;;;;;;;;;3.67;3.67;;;;;30.29;94.21;101837.66;6140739;23;46290;-83
2022/05/05 10:40:09;;;;;;;;;5.00;4.00;;;;;29.57;89.10;101863.34;6142192;23;45414;-83
2022/05/05 10:42:41;;;;;;;;;6.67;5.00;;;;;29.07;87.60;101866.84;6133232;22;45697;-83
2022/05/05 10:45:10;;;;;;;;;3.00;3.00;;;;;28.13;85.08;101874.28;6141772;23;45652;-82
2022/05/05 10:48:01;;;;;;;;;4.00;4.00;;;;;30.04;87.82;101854.41;6143432;22;45427;-83
2022/05/05 10:50:39;;;;;;;;;6.00;5.67;;;;;32.96;89.12;101851.69;6143377;22;45332;-82
2022/05/05 10:53:07;;;;;;;;;6.00;5.33;;;;;34.93;86.34;101876.50;6142761;22;45875;-83
2022/05/05 10:55:45;;;;;;;;;4.00;3.33;;;;;34.09;78.89;101914.13;6141608;22;45622;-82
2022/05/05 10:58:11;;;;;;;;;3.00;2.67;;;;;32.33;75.44;101926.88;6188615;22;45404;-83
2022/05/05 11:00:41;;;;;;;;;5.00;4.00;;;;;30.66;74.61;101929.94;6142425;22;45584;-83
2022/05/05 11:03:06;;;;;;;;;6.00;3.33;;;;;29.16;74.78;101927.97;6128663;23;45543;-83
2022/05/05 11:05:39;;;;;;;;;4.00;3.00;;;;;27.84;74.75;101926.72;6138002;23;45390;-83
2022/05/05 11:08:08;;;;;;;;;4.33;4.33;;;;;26.83;75.80;101916.53;6137769;23;47033;-83
2022/05/05 11:13:42;;;;;;;;;4.33;4.33;;;;;25.51;77.97;101894.31;6141255;23;45333;-82
2022/05/05 11:22:10;;;;;;;;;3.00;2.00;;;;;24.47;79.25;101874.28;6145523;23;45388;-85
2022/05/05 11:24:37;;;;;;;;;3.67;3.67;;;;;24.16;79.93;101870.50;6145508;23;45381;-83
2022/05/05 11:27:03;;;;;;;;;6.00;5.33;;;;;23.78;80.37;101855.97;6145223;23;45379;-84
2022/05/05 11:29:30;;;;;;;;;6.33;5.00;;;;;23.55;80.81;101854.00;6148789;22;45785;-85
2022/05/05 11:32:05;;;;;;;;;3.67;3.00;;;;;23.97;82.19;101827.47;6146282;22;45283;-85
2022/05/05 11:34:36;;;;;;;;;3.00;3.00;;;;;24.09;81.49;101856.19;6136132;22;45613;-85
2022/05/05 11:37:02;;;;;;;;;5.00;5.00;;;;;23.81;81.36;101855.09;6146106;23;45650;-85
2022/05/05 11:39:29;;;;;;;;;3.67;3.00;;;;;23.50;81.61;101845.03;6135739;22;47274;-85
2022/05/05 11:42:08;;;;;;;;;4.00;4.00;;;;;23.19;81.35;101849.16;6143384;22;45401;-86
2022/05/05 11:44:37;;;;;;;;;4.00;4.00;;;;;23.04;82.11;101841.00;6137611;23;45589;-86
2022/05/05 11:47:14;;;;;;;;;12.00;9.00;;;;;23.00;82.88;101837.38;6146781;23;45361;-84
2022/05/05 11:49:43;;;;;;;;;5.67;5.67;;;;;22.85;82.54;101840.78;6141938;22;47471;-85
2022/05/05 11:52:09;;;;;;;;;7.00;6.00;;;;;22.61;83.30;101844.91;6139779;23;45318;-85
2022/05/05 11:54:34;;;;;;;;;4.67;4.00;;;;;22.40;83.76;101827.69;6145043;23;45313;-85
2022/05/05 11:57:00;;;;;;;;;5.67;5.33;;;;;22.31;83.84;101821.38;6142852;22;45334;-85
2022/05/05 12:02:13;;;;;;;;;5.33;3.33;;;;;21.90;84.16;101819.91;6145272;23;45342;-85
2022/05/05 12:04:41;;;;;;;;;5.00;5.00;;;;;21.62;83.97;101823.00;6138272;22;45457;-85
2022/05/05 12:07:09;;;;;;;;;2.67;2.67;;;;;21.39;84.30;101825.31;6142274;23;45432;-85
2022/05/05 12:09:36;;;;;;;;;4.00;3.00;;;;;21.20;85.00;101816.94;6139061;23;47886;-85
2022/05/05 12:12:14;;;;;;;;;3.67;3.00;;;;;21.07;84.70;101815.81;6141374;23;45242;-87
2022/05/05 12:14:45;;;;;;;;;3.33;2.00;;;;;21.01;85.00;101808.59;6144988;22;45535;-87
2022/05/05 12:17:18;;;;;;;;;5.33;3.67;;;;;21.13;85.48;101799.03;6132655;22;45565;-87
2022/05/05 12:19:48;;;;;;;;;3.00;3.00;;;;;21.40;85.86;101797.69;6143781;23;45573;-87
2022/05/05 12:22:14;;;;;;;;;2.67;2.33;;;;;;;;6127152;23;45929;-86
2022/05/05 12:24:47;;;;;;;;;3.00;2.67;;;;;21.98;86.26;101785.28;6143052;23;45436;-86
2022/05/05 12:27:12;;;;;;;;;2.00;2.00;;;;;22.57;86.61;101789.59;6143910;22;45407;-86
2022/05/05 12:29:43;;;;;;;;;4.33;3.00;;;;;22.95;85.92;101788.22;6144771;23;45404;-85
2022/05/05 12:32:15;;;;;;;;;3.00;3.00;;;;;23.09;85.26;101801.78;6140725;22;45412;-86
2022/05/05 12:34:41;;;;;;;;;4.00;2.67;;;;;22.98;84.53;101802.56;6132516;23;45527;-86
2022/05/05 12:37:17;;;;;;;;;4.67;4.67;;;;;22.77;83.55;101819.28;6141367;22;45349;-85
2022/05/05 12:39:57;;;;;;;;;2.00;2.00;;;;;22.47;83.08;101818.88;6135569;23;47160;-85
2022/05/05 12:42:37;;;;;;;;;2.33;2.33;;;;;22.46;83.77;101813.53;6143318;23;45632;-86
2022/05/05 12:45:04;;;;;;;;;4.00;3.00;;;;;22.83;85.09;101800.59;6142766;22;45651;-86
2022/05/05 12:47:29;;;;;;;;;4.33;4.33;;;;;23.74;85.77;101798.75;6142100;22;45435;-85
2022/05/05 12:49:54;;;;;;;;;4.67;4.00;;;;;24.19;83.28;101816.91;6142457;23;45346;-86
2022/05/05 13:00:50;;;;;;;;;3.00;3.00;;;;;23.32;81.25;101830.56;6140963;23;45555;-86
2022/05/05 13:03:15;;;;;;;;;2.33;2.00;;;;;23.22;81.55;101824.19;6130093;22;45796;-86
2022/05/05 13:05:41;;;;;;;;;2.00;2.00;;;;;23.38;82.50;101813.59;6141762;23;45878;-86
2022/05/05 13:08:07;;;;;;;;;1.00;1.00;;;;;23.61;82.37;101831.69;6141774;23;45306;-86
2022/05/05 13:10:32;;;;;;;;;2.33;1.33;;;;;23.76;82.19;101829.13;6132745;23;51316;-85
2022/05/05 13:12:58;;;;;;;;;4.00;2.00;;;;;23.86;80.99;101846.16;6141029;23;45256;-86
2022/05/05 13:15:23;;;;;;;;;5.00;4.00;;;;;23.86;81.30;101843.50;6142400;22;45357;-86
2022/05/05 13:17:48;;;;;;;;;3.67;3.00;;;;;24.10;82.17;101835.59;6137743;22;45739;-86
2022/05/05 13:20:14;;;;;;;;;1.33;1.33;;;;;24.72;82.25;101834.13;6130345;23;47302;-86
2022/05/05 13:22:39;;;;;;;;;2.33;2.33;;;;;25.08;82.20;101840.50;6141416;23;51697;-86
2022/05/05 13:25:05;;;;;;;;;3.00;2.33;;;;;25.74;81.13;101843.28;6126189;23;55282;-86
2022/05/05 13:27:30;;;;;;;;;2.00;2.00;;;;;25.88;79.53;101871.91;6141663;23;45695;-85
2022/05/05 13:29:55;;;;;;;;;2.00;2.00;;;;;25.58;78.98;101871.00;6141973;23;52256;-86
2022/05/05 13:32:21;;;;;;;;;2.00;2.00;;;;;25.53;79.20;101865.66;6131714;23;45795;-86
2022/05/05 13:34:46;;;;;;;;;4.00;3.00;;;;;25.34;78.32;101879.06;6144659;23;45213;-87
2022/05/05 13:37:11;;;;;;;;;1.67;1.67;;;;;25.14;78.59;101874.56;6141139;23;45217;-87
2022/05/05 13:39:37;;;;;;;;;3.00;3.00;;;;;24.90;77.34;101873.56;6133948;22;46937;-87
2022/05/05 13:42:03;;;;;;;;;3.00;2.00;;;;;25.03;78.41;101873.63;6141712;23;45346;-85
2022/05/05 13:44:29;;;;;;;;;4.00;3.00;;;;;26.81;79.32;101868.97;6142201;23;45365;-85
2022/05/05 13:46:54;;;;;;;;;1.67;1.67;;;;;27.30;77.52;101883.97;6141118;23;45593;-86
2022/05/05 13:49:20;;;;;;;;;2.00;2.00;;;;;27.03;76.20;101893.09;6140088;23;46233;-86
2022/05/05 13:51:45;;;;;;;;;1.33;1.33;;;;;26.66;75.65;101892.38;6141554;22;45354;-85
2022/05/05 13:54:11;;;;;;;;;2.00;1.67;;;;;26.43;75.66;101893.34;6141663;23;45390;-85
2022/05/05 13:56:36;;;;;;;;;3.00;3.00;;;;;26.44;76.15;101895.16;6142624;23;45367;-85
2022/05/05 13:59:02;;;;;;;;;3.00;3.00;;;;;26.57;76.17;101896.00;6139721;22;47422;-84
2022/05/05 14:01:27;;;;;;;;;3.67;3.00;;;;;26.82;75.76;101895.91;6141521;22;45313;-84
2022/05/05 14:03:54;;;;;;;;;3.67;3.00;;;;;28.17;76.86;101881.44;6142470;23;53384;-85
2022/05/05 14:06:19;;;;;;;;;3.00;3.00;;;;;28.55;75.90;101899.94;6130998;23;45471;-85
2022/05/05 14:14:12;;;;;;;;;2.00;2.00;;;;;28.03;74.50;101908.56;6139518;23;45417;-85
2022/05/05 14:16:38;;;;;;;;;2.00;2.00;;;;;27.66;73.56;101905.25;6134761;23;45301;-85
2022/05/05 14:19:04;;;;;;;;;3.00;3.00;;;;;27.30;73.11;101912.72;6138891;22;47748;-85
2022/05/05 14:21:29;;;;;;;;;2.33;2.33;;;;;27.03;73.97;101906.56;6144668;23;45644;-96
2022/05/05 14:23:55;;;;;;;;;3.00;3.00;;;;;26.81;74.73;101898.59;6149801;23;45236;-96
2022/05/05 14:26:20;;;;;;;;;3.00;3.00;;;;;26.61;74.73;101902.28;6146558;23;45326;-96
2022/05/05 14:28:46;;;;;;;;;6.33;4.00;;;;;26.35;75.23;101896.03;6154907;23;46418;-85
2022/05/05 14:31:12;;;;;;;;;3.33;3.00;;;;;26.17;74.85;101910.44;6117949;23;45348;-85
2022/05/05 14:33:37;;;;;;;;;4.00;2.67;;;;;25.94;74.60;101904.19;6149625;23;45686;-82
2022/05/05 14:36:18;;;;;;;;;2.00;2.00;;;;;25.90;74.92;101902.38;6165704;22;45446;-91
2022/05/05 14:38:44;;;;;;;;;3.00;1.67;;;;;26.03;75.59;101892.50;6165067;22;45198;-91
2022/05/05 14:41:09;;;;;;;;;1.00;1.00;;;;;26.81;76.37;101887.81;6143081;22;45394;-84
2022/05/05 14:43:34;;;;;;;;;3.00;2.00;;;;;27.43;74.76;101887.47;6145434;23;45252;-84
2022/05/05 14:46:01;;;;;;;;;2.00;2.00;;;;;27.78;73.65;101906.09;6148148;22;45278;-83
2022/05/05 14:48:30;;;;;;;;;3.67;2.67;;;;;27.82;71.42;101915.97;6145198;23;46102;-83
2022/05/05 14:50:56;;;;;;;;;4.00;3.00;;;;;27.54;71.41;101917.06;6150856;23;45330;-84
2022/05/05 14:53:23;;;;;;;;;3.33;2.67;;;;;27.37;71.33;101921.69;6154463;23;45290;-83
2022/05/05 14:55:49;;;;;;;;;1.67;1.67;;;;;27.12;71.56;101901.13;6148785;23;45298;-85
2022/05/05 14:58:14;;;;;;;;;3.00;3.00;;;;;26.92;72.02;101907.53;6149183;22;46300;-84
2022/05/05 15:00:40;;;;;;;;;3.00;3.00;;;;;26.80;72.22;101907.59;6147235;22;45254;-85
2022/05/05 15:03:06;;;;;;;;;1.33;1.33;;;;;26.77;72.77;101903.13;6134604;22;45390;-85
2022/05/05 15:05:31;;;;;;;;;1.00;1.00;;;;;26.72;72.79;101900.44;6141904;23;45262;-86
2022/05/05 15:07:57;;;;;;;;;1.33;1.33;;;;;26.65;73.52;101895.97;6140545;23;46462;-85
2022/05/05 15:10:22;;;;;;;;;3.00;3.00;;;;;26.55;73.72;101893.31;6141076;23;45241;-86
2022/05/05 15:12:50;;;;;;;;;2.00;2.00;;;;;26.43;73.69;101901.41;6142725;23;45553;-85
2022/05/05 15:15:16;;;;;;;;;2.00;2.00;;;;;26.18;73.08;101904.16;6128618;22;45427;-84
2022/05/05 15:17:42;;;;;;;;;4.00;3.00;;;;;25.86;73.27;101906.91;6141684;23;45338;-85
2022/05/05 15:20:09;;;;;;;;;2.00;2.00;;;;;25.55;72.82;101898.78;6142243;22;45333;-84
2022/05/05 15:22:36;;;;;;;;;3.00;2.00;;;;;25.27;73.15;101905.03;6142203;22;45563;-85
2022/05/05 15:25:11;;;;;;;;;2.00;2.00;;;;;25.04;72.93;101899.59;6140950;22;45493;-85
2022/05/05 15:27:38;;;;;;;;;3.00;3.00;;;;;24.78;73.93;101896.81;6131521;23;48294;-85
2022/05/05 15:30:05;;;;;;;;;2.33;2.33;;;;;24.62;73.79;101893.16;6141002;23;45320;-84
2022/05/05 15:32:30;;;;;;;;;2.33;2.33;;;;;24.52;74.68;101892.22;6142225;22;45324;-85
2022/05/05 15:34:57;;;;;;;;;4.67;3.00;;;;;24.48;75.29;101884.16;6142604;23;45285;-84
2022/05/05 15:37:24;;;;;;;;;2.00;1.67;;;;;24.44;75.49;101886.81;6124332;23;48263;-84
2022/05/05 15:39:49;;;;;;;;;2.00;2.00;;;;;24.43;75.71;101884.13;6138345;22;45458;-84
2022/05/05 15:42:14;;;;;;;;;2.00;2.00;;;;;24.33;75.56;101881.38;6140924;23;45447;-85
2022/05/05 15:44:40;;;;;;;;;2.00;2.00;;;;;24.24;75.06;101883.97;6135362;22;45489;-85
2022/05/05 15:47:05;;;;;;;;;3.33;3.33;;;;;24.21;75.59;101887.53;6142256;22;45559;-83
2022/05/05 15:49:31;;;;;;;;;2.00;2.00;;;;;24.15;75.49;101887.47;6140468;23;45314;-84
2022/05/05 15:51:56;;;;;;;;;4.67;3.33;;;;;24.03;75.59;101888.31;6138781;23;45349;-85
2022/05/05 15:54:21;;;;;;;;;1.67;1.67;;;;;23.88;75.98;101895.38;6130328;23;45534;-85
2022/05/05 15:56:47;;;;;;;;;3.00;3.00;;;;;23.65;75.90;101889.81;6138640;23;54671;-85
2022/05/05 15:59:12;;;;;;;;;5.67;4.00;;;;;23.41;76.56;101886.88;6125932;22;45368;-84
2022/05/05 16:01:37;;;;;;;;;4.67;3.33;;;;;23.22;76.38;101892.03;6137433;22;45437;-85
2022/05/05 16:04:03;;;;;;;;;3.00;3.00;;;;;23.00;76.46;101882.88;6139749;23;45432;-85
2022/05/05 16:06:28;;;;;;;;;2.00;2.00;;;;;22.79;76.82;101889.78;6130425;23;47311;-85
2022/05/05 16:08:53;;;;;;;;;1.67;1.67;;;;;22.54;76.51;101903.72;6141268;23;46397;-85
2022/05/05 16:11:19;;;;;;;;;3.00;2.67;;;;;22.26;76.74;101895.28;6131033;22;45279;-84
2022/05/05 16:13:44;;;;;;;;;3.00;3.00;;;;;21.96;76.80;101897.50;6142887;23;45470;-85
2022/05/05 16:16:10;;;;;;;;;5.00;4.00;;;;;21.75;77.34;101892.69;6128481;23;46819;-84
2022/05/05 16:18:35;;;;;;;;;3.33;3.33;;;;;21.54;77.64;101894.97;6140080;23;45558;-84
2022/05/05 16:21:01;;;;;;;;;4.00;2.67;;;;;21.38;78.24;101888.47;6142048;23;45416;-85
2022/05/05 16:23:26;;;;;;;;;3.00;3.00;;;;;21.23;78.71;101877.50;6132247;23;45714;-84
2022/05/05 16:31:19;;;;;;;;;3.00;3.00;;;;;20.93;79.41;101877.81;6141896;23;45671;-84
2022/05/05 16:33:45;;;;;;;;;4.00;2.67;;;;;20.82;79.81;101871.38;6136946;23;45294;-85
2022/05/05 16:36:10;;;;;;;;;2.00;2.00;;;;;20.74;79.68;101871.19;6142653;22;46226;-85
2022/05/05 16:38:36;;;;;;;;;2.33;2.00;;;;;20.68;80.34;101873.72;6141757;23;47393;-86
2022/05/05 16:41:01;;;;;;;;;1.00;1.00;;;;;20.60;80.56;101863.81;6142695;23;45330;-85
2022/05/05 16:43:27;;;;;;;;;2.00;2.00;;;;;20.55;80.59;101857.47;6132527;22;45802;-85
2022/05/05 16:45:53;;;;;;;;;2.00;2.00;;;;;20.51;80.77;101866.28;6141995;23;53898;-84
2022/05/05 16:48:18;;;;;;;;;4.00;2.33;;;;;20.44;80.67;101857.22;6142931;23;45439;-85
2022/05/05 16:50:43;;;;;;;;;2.00;2.00;;;;;20.35;81.19;101852.59;6135552;22;45329;-84
2022/05/05 16:53:09;;;;;;;;;3.33;2.00;;;;;20.25;81.06;101856.84;6141191;22;45443;-85
2022/05/05 16:55:34;;;;;;;;;2.00;2.00;;;;;20.13;81.25;101852.09;6143409;23;45289;-85
2022/05/05 16:58:00;;;;;;;;;2.00;2.00;;;;;20.02;82.13;101848.28;6143112;22;45356;-85
2022/05/05 17:00:26;;;;;;;;;2.00;2.00;;;;;19.88;82.23;101844.41;6142753;23;45584;-84
2022/05/05 17:02:52;;;;;;;;;2.00;2.00;;;;;19.81;82.46;101842.47;6142803;22;45298;-84
2022/05/05 17:05:19;;;;;;;;;1.00;1.00;;;;;19.75;82.73;101836.97;6131004;22;46879;-84
2022/05/05 17:07:50;;;;;;;;;3.33;2.00;;;;;19.68;82.83;101832.38;6141772;23;45334;-84
2022/05/05 17:10:20;;;;;;;;;2.33;2.33;;;;;19.61;83.41;101831.31;6142244;22;45658;-84
2022/05/05 17:12:47;;;;;;;;;3.00;3.00;;;;;19.56;83.75;101825.84;6136501;22;45400;-84
2022/05/05 17:15:14;;;;;;;;;1.00;1.00;;;;;19.50;83.73;101828.38;6129899;23;46286;-85
2022/05/05 17:17:39;;;;;;;;;3.33;2.00;;;;;19.49;83.95;101830.13;6142528;23;45637;-84
2022/05/05 17:20:06;;;;;;;;;1.33;0.00;;;;;19.41;84.29;101810.38;6142786;22;45569;-85
2022/05/05 17:22:31;;;;;;;;;3.00;3.00;;;;;19.39;84.41;101813.03;6132281;23;45540;-86
2022/05/05 17:24:58;;;;;;;;;2.00;2.00;;;;;19.33;84.48;101812.84;6139714;23;46942;-85
2022/05/05 17:27:23;;;;;;;;;3.00;3.00;;;;;19.31;85.12;101817.25;6138914;22;45972;-86
2022/05/05 17:29:48;;;;;;;;;2.67;2.67;;;;;19.26;84.88;101816.22;6137672;22;45518;-85
2022/05/05 17:32:14;;;;;;;;;1.67;1.67;;;;;19.25;85.13;101817.09;6130880;22;45256;-93
2022/05/05 17:34:39;;;;;;;;;6.00;4.00;;;;;19.20;86.03;101812.53;6139620;23;46806;-85
2022/05/05 17:37:04;;;;;;;;;2.00;2.00;;;;;19.19;85.99;101816.06;6142135;22;45653;-85
2022/05/05 17:39:30;;;;;;;;;2.00;2.00;;;;;19.16;86.14;101807.97;6142879;22;45673;-88
2022/05/05 17:41:56;;;;;;;;;2.00;2.00;;;;;19.14;86.70;101807.03;6138672;22;45545;-86
2022/05/05 17:52:33;;;;;;;;;2.67;2.67;;;;;18.96;87.02;101807.44;6142534;23;45416;-85
2022/05/05 17:54:59;;;;;;;;;1.67;1.33;;;;;18.93;86.93;101810.00;6140694;23;46494;-85
2022/05/05 17:57:24;;;;;;;;;5.00;2.67;;;;;18.88;87.31;101809.88;6142290;23;45724;-85
2022/05/05 17:59:50;;;;;;;;;3.33;2.33;;;;;18.86;87.11;101800.97;6143365;23;45358;-85
2022/05/05 18:02:16;;;;;;;;;2.33;2.00;;;;;18.85;87.43;101801.81;6142819;22;45331;-85
2022/05/05 18:04:41;;;;;;;;;1.00;1.00;;;;;18.81;87.73;101799.94;6143679;22;46389;-86
2022/05/05 18:07:07;;;;;;;;;3.67;3.67;;;;;18.80;87.81;101807.00;6141754;22;45365;-86
2022/05/05 18:09:32;;;;;;;;;3.00;3.00;;;;;18.77;87.93;101804.25;6141978;23;45421;-85
2022/05/05 18:11:59;;;;;;;;;4.00;2.00;;;;;18.72;87.86;101809.44;6142914;22;45290;-86
2022/05/05 18:14:25;;;;;;;;;1.00;1.00;;;;;18.68;88.10;101811.97;6133556;23;48234;-85
2022/05/05 18:16:51;;;;;;;;;1.00;1.00;;;;;18.60;87.96;101809.09;6142276;23;46217;-88
2022/05/05 18:19:17;;;;;;;;;3.00;2.00;;;;;18.57;88.45;101803.69;6141951;22;45397;-88
2022/05/05 18:21:43;;;;;;;;;3.00;2.00;;;;;18.57;88.73;101804.59;6142429;22;45342;-89
2022/05/05 18:24:08;;;;;;;;;3.67;3.67;;;;;18.53;88.55;101806.25;6128535;23;48193;-88